Upstream stations:
Downstream station:
SHEF ID: QUAO2 Spring River near Quapaw, OK
STATION TYPE:
Regulating: Stage = 20.00, Flow = 33676
PRECIP STAGE STAGE(2) RIV-FLOW BAT-LOAD
in ft ft cfs volt
Ccp-Rev Ccp-Rev Ccp-Rev Ccp-Rev Ccp-Rev
(US/Central)
03/30 00:00 0.00 7.63 7.79 2054 11.94
03/30 01:00 0.00 7.64 7.76 2068 11.87
03/30 02:00 0.00 7.63 7.70 2054 11.88
03/30 03:00 0.04 7.62 7.73 2041 11.80
03/30 04:00 0.18 7.64 7.78 2068 11.88
03/30 05:00 0.04 7.63 7.71 2054 11.91
03/30 06:00 0.08 7.63 7.78 2054 11.91
03/30 07:00 0.06 7.64 7.74 2068 11.99
03/30 08:00 0.01 7.62 7.78 2041 12.02
03/30 09:00 0.00 7.62 7.77 2041 12.38
03/30 10:00 0.00 7.62 7.77 2041 12.14
03/30 11:00 0.00 7.63 7.74 2054 12.36
03/30 12:00 0.00 7.62 7.72 2041 12.40
03/30 13:00 0.15 7.62 7.74 2041 12.27
03/30 14:00 0.00 7.60 7.73 2014 12.40
03/30 15:00 0.00 7.60 7.72 2014 12.46
03/30 16:00 0.01 7.50 7.73 1883 12.52
03/30 17:00 0.00 7.52 7.78 1909 12.54
03/30 18:00 0.04 7.53 7.79 1922 12.46
03/30 19:00 0.01 7.52 7.76 1909 12.32
03/30 20:00 0.02 7.53 7.80 1922 12.24
03/30 21:00 0.00 7.54 7.80 1935 12.14
03/30 22:00 0.00 7.55 7.82 1948 12.11
03/30 23:00 0.00 7.56 7.81 1961 12.13